Time,TemperatureF,DewpointF,PressureIn,WindDirection,WindDirectionDegrees,WindSpeedMPH,WindSpeedGustMPH,Humidity,HourlyPrecipIn,Conditions,Clouds,dailyrainin,SoftwareType,DateUTC
2013-10-25 00:09:00,40.7,28.3,29.92,North,351,1.5,4.5,61,0.00,,CLR,0.00,VWS V14.01,2013-10-25 04:09:00,
2013-10-25 00:19:00,40.8,28.4,29.92,WSW,255,0.0,6.0,61,0.00,,CLR,0.00,VWS V14.01,2013-10-25 04:19:00,
2013-10-25 00:29:00,40.8,28.0,29.92,SSE,160,1.5,3.0,60,0.00,,CLR,0.00,VWS V14.01,2013-10-25 04:29:00,
2013-10-25 00:39:00,40.3,28.4,29.92,NNW,336,4.5,4.5,62,0.00,,CLR,0.00,VWS V14.01,2013-10-25 04:39:00,
2013-10-25 00:50:00,40.0,28.1,29.92,NW,323,0.0,0.0,62,0.00,,CLR,0.00,VWS V14.01,2013-10-25 04:50:00,
2013-10-25 00:59:00,39.7,27.8,29.92,NW,317,0.0,3.0,62,0.00,,CLR,0.00,VWS V14.01,2013-10-25 04:59:00,
2013-10-25 01:10:00,39.4,28.3,29.93,West,269,0.0,3.0,64,0.00,,CLR,0.00,VWS V14.01,2013-10-25 05:10:00,
2013-10-25 01:20:00,39.1,28.4,29.92,West,266,3.0,4.5,65,0.00,,CLR,0.00,VWS V14.01,2013-10-25 05:20:00,
2013-10-25 01:30:00,39.1,28.4,29.93,North,3,1.5,1.5,65,0.00,,CLR,0.00,VWS V14.01,2013-10-25 05:30:00,
2013-10-25 01:40:00,38.8,28.0,29.93,West,269,0.0,0.0,65,0.00,,CLR,0.00,VWS V14.01,2013-10-25 05:40:00,
2013-10-25 01:50:00,38.7,28.0,29.92,West,269,0.0,0.0,65,0.00,,CLR,0.00,VWS V14.01,2013-10-25 05:50:00,
2013-10-25 02:00:00,38.3,27.9,29.93,West,269,0.0,1.5,66,0.00,,CLR,0.00,VWS V14.01,2013-10-25 06:00:00,
2013-10-25 02:10:00,38.0,28.0,29.93,West,269,0.0,1.5,67,0.00,,CLR,0.00,VWS V14.01,2013-10-25 06:10:00,
2013-10-25 02:20:00,38.0,27.6,29.93,West,269,0.0,4.5,66,0.00,,CLR,0.00,VWS V14.01,2013-10-25 06:20:00,
2013-10-25 02:30:00,38.0,28.0,29.93,WSW,256,3.0,6.0,67,0.00,,CLR,0.00,VWS V14.01,2013-10-25 06:30:00,
2013-10-25 02:39:00,38.0,28.4,29.93,WSW,255,0.0,4.5,68,0.00,,CLR,0.00,VWS V14.01,2013-10-25 06:39:00,
2013-10-25 02:49:00,37.7,28.1,29.92,WSW,255,1.5,4.5,68,0.00,,CLR,0.00,VWS V14.01,2013-10-25 06:49:00,
2013-10-25 02:59:00,37.8,28.2,29.93,WSW,255,0.0,0.0,68,0.00,,CLR,0.00,VWS V14.01,2013-10-25 06:59:00,
2013-10-25 03:09:00,37.7,28.1,29.93,WSW,255,0.0,3.0,68,0.00,,CLR,0.00,VWS V14.01,2013-10-25 07:09:00,
2013-10-25 03:19:00,37.7,28.1,29.93,WSW,258,0.0,1.5,68,0.00,,CLR,0.00,VWS V14.01,2013-10-25 07:19:00,
2013-10-25 03:29:00,37.4,28.2,29.93,WSW,258,0.0,0.0,69,0.00,,CLR,0.00,VWS V14.01,2013-10-25 07:29:00,
2013-10-25 03:39:00,37.2,27.7,29.93,WSW,258,0.0,1.5,68,0.00,,CLR,0.00,VWS V14.01,2013-10-25 07:39:00,
2013-10-25 03:49:00,37.0,27.8,29.93,WSW,258,0.0,1.5,69,0.00,,CLR,0.00,VWS V14.01,2013-10-25 07:49:00,
2013-10-25 03:59:00,36.6,28.1,29.93,West,264,4.5,4.5,71,0.00,,CLR,0.00,VWS V14.01,2013-10-25 07:59:00,
2013-10-25 04:09:00,36.9,28.4,29.94,West,264,0.0,0.0,71,0.00,,CLR,0.00,VWS V14.01,2013-10-25 08:09:00,
2013-10-25 04:19:00,37.0,28.2,29.94,West,263,0.0,4.5,70,0.00,,CLR,0.00,VWS V14.01,2013-10-25 08:19:00,
2013-10-25 04:29:00,36.6,28.5,29.95,NNW,342,0.0,9.0,72,0.00,,CLR,0.00,VWS V14.01,2013-10-25 08:29:00,
2013-10-25 04:39:00,36.6,28.8,29.95,NW,313,1.5,1.5,73,0.00,,CLR,0.00,VWS V14.01,2013-10-25 08:39:00,
2013-10-25 04:49:00,36.3,28.5,29.95,WNW,295,0.0,4.5,73,0.00,,CLR,0.00,VWS V14.01,2013-10-25 08:49:00,
2013-10-25 04:59:00,36.3,28.5,29.96,NW,310,0.0,6.0,73,0.00,,CLR,0.00,VWS V14.01,2013-10-25 08:59:00,
2013-10-25 05:09:00,36.3,28.5,29.96,WNW,289,0.0,4.5,73,0.00,,CLR,0.00,VWS V14.01,2013-10-25 09:09:00,
2013-10-25 05:19:00,36.2,28.7,29.96,NW,307,0.0,1.5,74,0.00,,CLR,0.00,VWS V14.01,2013-10-25 09:19:00,
2013-10-25 05:29:00,35.9,28.4,29.97,NW,308,1.5,7.5,74,0.00,,CLR,0.00,VWS V14.01,2013-10-25 09:29:00,
2013-10-25 05:39:00,35.4,28.6,29.97,NW,308,0.0,0.0,76,0.00,,CLR,0.00,VWS V14.01,2013-10-25 09:39:00,
2013-10-25 05:49:00,34.9,28.2,29.97,NW,308,0.0,0.0,76,0.00,,CLR,0.00,VWS V14.01,2013-10-25 09:49:00,
2013-10-25 05:59:00,34.5,28.1,29.98,WNW,282,0.0,3.0,77,0.00,,CLR,0.00,VWS V14.01,2013-10-25 09:59:00,
2013-10-25 06:09:00,34.5,28.4,29.98,WNW,282,0.0,0.0,78,0.00,,CLR,0.00,VWS V14.01,2013-10-25 10:09:00,
2013-10-25 06:20:00,34.5,28.1,29.98,WNW,282,0.0,0.0,77,0.00,,CLR,0.00,VWS V14.01,2013-10-25 10:20:00,
2013-10-25 06:30:00,34.3,28.2,29.99,WNW,282,0.0,0.0,78,0.00,,CLR,0.00,VWS V14.01,2013-10-25 10:30:00,
2013-10-25 06:40:00,34.2,28.4,29.99,WNW,282,0.0,1.5,79,0.00,,CLR,0.00,VWS V14.01,2013-10-25 10:40:00,
2013-10-25 06:50:00,33.9,28.1,29.99,WNW,282,0.0,0.0,79,0.00,,CLR,0.00,VWS V14.01,2013-10-25 10:50:00,
2013-10-25 07:00:00,33.7,27.9,30.00,WNW,282,0.0,0.0,79,0.00,,CLR,0.00,VWS V14.01,2013-10-25 11:00:00,
2013-10-25 07:10:00,33.7,27.9,30.00,WNW,282,0.0,0.0,79,0.00,,CLR,0.00,VWS V14.01,2013-10-25 11:10:00,
2013-10-25 07:20:00,33.6,28.1,30.01,WNW,282,0.0,0.0,80,0.00,,CLR,0.00,VWS V14.01,2013-10-25 11:20:00,
2013-10-25 07:30:00,33.7,28.2,30.01,WNW,282,0.0,0.0,80,0.00,,CLR,0.00,VWS V14.01,2013-10-25 11:30:00,
2013-10-25 07:39:00,33.7,28.5,30.01,WNW,282,0.0,0.0,81,0.00,,CLR,0.00,VWS V14.01,2013-10-25 11:39:00,
2013-10-25 07:49:00,33.8,28.6,30.02,WNW,282,0.0,0.0,81,0.00,,CLR,0.00,VWS V14.01,2013-10-25 11:49:00,
2013-10-25 07:59:00,34.0,28.8,30.02,WNW,282,0.0,1.5,81,0.00,,CLR,0.00,VWS V14.01,2013-10-25 11:59:00,
2013-10-25 08:09:00,34.4,29.5,30.02,WNW,282,0.0,1.5,82,0.00,,FEW030,0.00,VWS V14.01,2013-10-25 12:09:00,
2013-10-25 08:19:00,35.6,30.3,30.03,West,281,1.5,1.5,81,0.00,,FEW030,0.00,VWS V14.01,2013-10-25 12:19:00,
2013-10-25 08:29:00,36.8,30.9,30.03,West,260,0.0,3.0,79,0.00,,FEW030,0.00,VWS V14.01,2013-10-25 12:29:00,
2013-10-25 08:39:00,37.7,30.8,30.04,NW,311,0.0,3.0,76,0.00,,FEW030,0.00,VWS V14.01,2013-10-25 12:39:00,
2013-10-25 08:49:00,38.8,31.2,30.03,SW,228,0.0,1.5,74,0.00,,FEW030,0.00,VWS V14.01,2013-10-25 12:49:00,
2013-10-25 08:59:00,39.8,31.5,30.04,North,0,0.0,1.5,72,0.00,,FEW030,0.00,VWS V14.01,2013-10-25 12:59:00,
2013-10-25 09:09:00,40.9,31.9,30.04,WNW,288,0.0,4.5,70,0.00,,FEW030,0.00,VWS V14.01,2013-10-25 13:09:00,
2013-10-25 09:19:00,41.8,32.0,30.04,SW,219,4.5,6.0,68,0.00,,FEW030,0.00,VWS V14.01,2013-10-25 13:19:00,
2013-10-25 09:29:00,42.8,32.3,30.04,West,269,6.0,6.0,66,0.00,,FEW030,0.00,VWS V14.01,2013-10-25 13:29:00,
2013-10-25 09:39:00,43.5,32.1,30.04,WNW,300,0.0,9.0,64,0.00,,FEW030,0.00,VWS V14.01,2013-10-25 13:39:00,
2013-10-25 09:49:00,44.1,31.1,30.05,WSW,242,4.5,6.0,60,0.00,,FEW030,0.00,VWS V14.01,2013-10-25 13:49:00,
2013-10-25 09:59:00,44.7,29.6,30.04,WSW,249,3.0,4.5,55,0.00,,FEW030,0.00,VWS V14.01,2013-10-25 13:59:00,
2013-10-25 10:09:00,45.5,28.4,30.04,NW,309,1.5,16.5,51,0.00,,FEW030,0.00,VWS V14.01,2013-10-25 14:09:00,
2013-10-25 10:19:00,45.8,27.7,30.04,NNW,331,4.5,9.0,49,0.00,,FEW030,0.00,VWS V14.01,2013-10-25 14:19:00,
2013-10-25 10:29:00,46.3,28.2,30.04,NW,320,0.0,3.0,49,0.00,,FEW030,0.00,VWS V14.01,2013-10-25 14:29:00,
2013-10-25 10:39:00,46.8,28.2,30.04,North,7,1.5,7.5,48,0.00,,FEW030,0.00,VWS V14.01,2013-10-25 14:39:00,
2013-10-25 10:49:00,47.1,28.5,30.04,NW,317,6.0,15.0,48,0.00,,FEW030,0.00,VWS V14.01,2013-10-25 14:49:00,
2013-10-25 10:59:00,47.4,28.7,30.04,NNE,30,7.5,10.5,48,0.00,,FEW030,0.00,VWS V14.01,2013-10-25 14:59:00,
2013-10-25 11:09:00,47.8,28.6,30.04,WNW,283,6.0,10.5,47,0.00,,SCT050,0.00,VWS V14.01,2013-10-25 15:09:00,
2013-10-25 11:19:00,48.4,28.5,30.04,NE,56,6.0,9.0,46,0.00,,SCT050,0.00,VWS V14.01,2013-10-25 15:19:00,
2013-10-25 11:30:00,48.4,28.0,30.04,ENE,57,9.0,10.5,45,0.00,,SCT050,0.00,VWS V14.01,2013-10-25 15:30:00,
2013-10-25 11:40:00,49.1,27.0,30.04,North,6,3.0,7.5,42,0.00,,SCT050,0.00,VWS V14.01,2013-10-25 15:40:00,
2013-10-25 11:50:00,48.9,26.8,30.03,North,359,6.0,6.0,42,0.00,,SCT050,0.00,VWS V14.01,2013-10-25 15:50:00,
2013-10-25 12:00:00,49.4,26.7,30.04,West,277,4.5,10.5,41,0.00,,SCT050,0.00,VWS V14.01,2013-10-25 16:00:00,
2013-10-25 12:10:00,49.9,27.8,30.04,NNW,333,6.0,9.0,42,0.00,,BKN055,0.00,VWS V14.01,2013-10-25 16:10:00,
2013-10-25 12:20:00,50.4,27.0,30.03,NW,309,10.5,18.0,40,0.00,,BKN055,0.00,VWS V14.01,2013-10-25 16:20:00,
2013-10-25 12:30:00,49.6,26.9,30.03,NNW,328,1.5,6.0,41,0.00,,BKN055,0.00,VWS V14.01,2013-10-25 16:30:00,
2013-10-25 12:39:00,49.5,26.8,30.03,North,356,3.0,15.0,41,0.00,,BKN055,0.00,VWS V14.01,2013-10-25 16:39:00,
2013-10-25 12:49:00,49.5,26.2,30.03,NW,314,3.0,13.5,40,0.00,,BKN055,0.00,VWS V14.01,2013-10-25 16:49:00,
2013-10-25 12:59:00,49.2,25.9,30.03,West,280,3.0,12.0,40,0.00,,BKN055,0.00,VWS V14.01,2013-10-25 16:59:00,
2013-10-25 13:09:00,48.9,26.8,30.03,West,280,4.5,7.5,42,0.00,,BKN060,0.00,VWS V14.01,2013-10-25 17:09:00,
2013-10-25 13:19:00,48.4,26.9,30.03,North,1,4.5,12.0,43,0.00,,BKN060,0.00,VWS V14.01,2013-10-25 17:19:00,
2013-10-25 13:29:00,48.0,27.2,30.03,NNW,329,3.0,19.5,44,0.00,,BKN060,0.00,VWS V14.01,2013-10-25 17:29:00,
2013-10-25 13:39:00,48.4,26.9,30.03,NNE,32,4.5,12.0,43,0.00,,BKN060,0.00,VWS V14.01,2013-10-25 17:39:00,
2013-10-25 13:49:00,48.2,27.8,30.03,WNW,287,4.5,4.5,45,0.00,,BKN060,0.00,VWS V14.01,2013-10-25 17:49:00,
2013-10-25 13:59:00,48.5,28.1,30.03,West,272,3.0,6.0,45,0.00,,BKN060,0.00,VWS V14.01,2013-10-25 17:59:00,
2013-10-25 14:09:00,48.8,27.9,30.03,West,259,3.0,6.0,44,0.00,,OVC060,0.00,VWS V14.01,2013-10-25 18:09:00,
2013-10-25 14:19:00,48.5,28.1,30.03,South,184,3.0,6.0,45,0.00,,OVC060,0.00,VWS V14.01,2013-10-25 18:19:00,
2013-10-25 14:29:00,48.5,28.1,30.03,South,191,4.5,13.5,45,0.00,,OVC060,0.00,VWS V14.01,2013-10-25 18:29:00,
2013-10-25 14:39:00,49.1,28.7,30.03,WNW,288,10.5,15.0,45,0.00,,OVC060,0.00,VWS V14.01,2013-10-25 18:39:00,
2013-10-25 14:49:00,49.5,28.5,30.03,NNW,338,7.5,9.0,44,0.00,,OVC060,0.00,VWS V14.01,2013-10-25 18:49:00,
2013-10-25 14:59:00,49.4,28.4,30.03,NNW,327,3.0,9.0,44,0.00,,OVC060,0.00,VWS V14.01,2013-10-25 18:59:00,
2013-10-25 15:09:00,48.9,28.5,30.04,WSW,258,3.0,4.5,45,0.00,,BKN060,0.00,VWS V14.01,2013-10-25 19:09:00,
2013-10-25 15:19:00,48.8,28.4,30.03,NE,51,4.5,18.0,45,0.00,,BKN060,0.00,VWS V14.01,2013-10-25 19:19:00,
2013-10-25 15:29:00,48.7,28.3,30.03,NW,315,3.0,4.5,45,0.00,,BKN060,0.00,VWS V14.01,2013-10-25 19:29:00,
2013-10-25 15:40:00,48.7,28.8,30.03,NE,53,7.5,10.5,46,0.00,,BKN060,0.00,VWS V14.01,2013-10-25 19:40:00,
2013-10-25 15:50:00,48.9,28.5,30.04,NW,318,12.0,27.0,45,0.00,,BKN060,0.00,VWS V14.01,2013-10-25 19:50:00,
2013-10-25 16:00:00,48.8,28.4,30.04,ENE,61,3.0,12.0,45,0.00,,BKN060,0.00,VWS V14.01,2013-10-25 20:00:00,
2013-10-25 16:10:00,49.1,29.2,30.05,SSW,212,3.0,9.0,46,0.00,,BKN060,0.00,VWS V14.01,2013-10-25 20:10:00,
2013-10-25 16:20:00,49.2,29.3,30.05,North,352,10.5,10.5,46,0.00,,BKN060,0.00,VWS V14.01,2013-10-25 20:20:00,
2013-10-25 16:30:00,49.2,29.3,30.04,West,280,9.0,9.0,46,0.00,,BKN060,0.00,VWS V14.01,2013-10-25 20:30:00,
2013-10-25 16:40:00,49.2,29.3,30.05,NW,315,3.0,7.5,46,0.00,,BKN060,0.00,VWS V14.01,2013-10-25 20:40:00,
2013-10-25 16:50:00,49.1,28.7,30.05,NW,320,3.0,15.0,45,0.00,,BKN060,0.00,VWS V14.01,2013-10-25 20:50:00,
2013-10-25 17:00:00,48.3,28.5,30.05,NW,322,4.5,9.0,46,0.00,,BKN060,0.00,VWS V14.01,2013-10-25 21:00:00,
2013-10-25 17:10:00,47.8,29.1,30.06,NNE,23,0.0,6.0,48,0.00,,BKN060,0.00,VWS V14.01,2013-10-25 21:10:00,
2013-10-25 17:20:00,47.5,28.8,30.06,NNE,31,6.0,9.0,48,0.00,,BKN060,0.00,VWS V14.01,2013-10-25 21:20:00,
2013-10-25 17:30:00,47.4,28.7,30.06,East,80,3.0,7.5,48,0.00,,BKN060,0.00,VWS V14.01,2013-10-25 21:30:00,
2013-10-25 17:39:00,47.1,28.5,30.06,West,270,1.5,4.5,48,0.00,,BKN060,0.00,VWS V14.01,2013-10-25 21:39:00,
2013-10-25 17:49:00,46.6,29.0,30.07,NW,325,3.0,3.0,50,0.00,,BKN060,0.00,VWS V14.01,2013-10-25 21:49:00,
2013-10-25 17:59:00,45.9,29.2,30.07,NW,311,0.0,3.0,52,0.00,,BKN060,0.00,VWS V14.01,2013-10-25 21:59:00,
2013-10-25 18:09:00,45.2,28.2,30.08,WNW,282,0.0,0.0,51,0.00,,CLR,0.00,VWS V14.01,2013-10-25 22:09:00,
2013-10-25 18:19:00,44.5,28.9,30.08,WNW,284,0.0,0.0,54,0.00,,CLR,0.00,VWS V14.01,2013-10-25 22:19:00,
2013-10-25 18:29:00,44.0,28.9,30.09,NW,315,0.0,0.0,55,0.00,,CLR,0.00,VWS V14.01,2013-10-25 22:29:00,
2013-10-25 18:39:00,43.4,28.7,30.09,NW,317,0.0,0.0,56,0.00,,CLR,0.00,VWS V14.01,2013-10-25 22:39:00,
2013-10-25 18:49:00,43.0,28.8,30.10,NW,318,0.0,0.0,57,0.00,,CLR,0.00,VWS V14.01,2013-10-25 22:49:00,
2013-10-25 18:59:00,42.2,28.5,30.10,NW,319,0.0,0.0,58,0.00,,CLR,0.00,VWS V14.01,2013-10-25 22:59:00,
2013-10-25 19:09:00,41.6,28.4,30.10,NW,319,0.0,0.0,59,0.00,,CLR,0.00,VWS V14.01,2013-10-25 23:09:00,
2013-10-25 19:19:00,40.9,28.5,30.11,NW,319,0.0,0.0,61,0.00,,CLR,0.00,VWS V14.01,2013-10-25 23:19:00,
2013-10-25 19:29:00,40.5,28.5,30.11,NW,319,0.0,0.0,62,0.00,,CLR,0.00,VWS V14.01,2013-10-25 23:29:00,
2013-10-25 19:39:00,40.1,29.0,30.11,NW,319,0.0,0.0,64,0.00,,CLR,0.00,VWS V14.01,2013-10-25 23:39:00,
2013-10-25 19:49:00,39.8,28.7,30.11,NW,319,0.0,0.0,64,0.00,,CLR,0.00,VWS V14.01,2013-10-25 23:49:00,
2013-10-25 19:59:00,39.2,28.5,30.12,NW,319,0.0,0.0,65,0.00,,CLR,0.00,VWS V14.01,2013-10-25 23:59:00,
2013-10-25 20:09:00,38.8,28.4,30.12,NW,319,0.0,0.0,66,0.00,,CLR,0.00,VWS V14.01,2013-10-26 00:09:00,
2013-10-25 20:19:00,38.7,29.0,30.12,NW,319,0.0,0.0,68,0.00,,CLR,0.00,VWS V14.01,2013-10-26 00:19:00,
2013-10-25 20:29:00,38.5,28.9,30.12,NW,319,0.0,0.0,68,0.00,,CLR,0.00,VWS V14.01,2013-10-26 00:29:00,
2013-10-25 20:40:00,38.2,28.9,30.12,NW,319,0.0,0.0,69,0.00,,CLR,0.00,VWS V14.01,2013-10-26 00:40:00,
2013-10-25 20:50:00,37.9,28.6,30.13,NW,319,0.0,0.0,69,0.00,,CLR,0.00,VWS V14.01,2013-10-26 00:50:00,
2013-10-25 21:00:00,37.2,28.4,30.13,NW,319,0.0,0.0,70,0.00,,CLR,0.00,VWS V14.01,2013-10-26 01:00:00,
2013-10-25 21:10:00,37.0,28.5,30.14,NW,319,0.0,0.0,71,0.00,,CLR,0.00,VWS V14.01,2013-10-26 01:10:00,
2013-10-25 21:20:00,37.2,28.7,30.14,NW,319,0.0,0.0,71,0.00,,CLR,0.00,VWS V14.01,2013-10-26 01:20:00,
2013-10-25 21:30:00,37.7,29.5,30.14,NW,319,0.0,0.0,72,0.00,,CLR,0.00,VWS V14.01,2013-10-26 01:30:00,
2013-10-25 21:39:00,37.8,29.2,30.14,NW,319,0.0,0.0,71,0.00,,CLR,0.00,VWS V14.01,2013-10-26 01:39:00,
2013-10-25 21:49:00,37.7,29.1,30.15,NW,319,0.0,1.5,71,0.00,,CLR,0.00,VWS V14.01,2013-10-26 01:49:00,
2013-10-25 21:59:00,37.3,29.1,30.16,NW,319,0.0,0.0,72,0.00,,CLR,0.00,VWS V14.01,2013-10-26 01:59:00,
2013-10-25 22:09:00,37.4,29.2,30.16,NW,319,0.0,0.0,72,0.00,,CLR,0.00,VWS V14.01,2013-10-26 02:09:00,
2013-10-25 22:19:00,37.8,29.5,30.16,NW,319,0.0,0.0,72,0.00,,CLR,0.00,VWS V14.01,2013-10-26 02:19:00,
2013-10-25 22:29:00,38.1,29.5,30.16,NW,319,0.0,0.0,71,0.00,,CLR,0.00,VWS V14.01,2013-10-26 02:29:00,
2013-10-25 22:39:00,38.4,29.5,30.16,NW,319,0.0,0.0,70,0.00,,CLR,0.00,VWS V14.01,2013-10-26 02:39:00,
2013-10-25 22:49:00,38.4,29.5,30.17,NW,319,0.0,0.0,70,0.00,,CLR,0.00,VWS V14.01,2013-10-26 02:49:00,
2013-10-25 22:59:00,38.5,29.6,30.16,NW,319,0.0,0.0,70,0.00,,CLR,0.00,VWS V14.01,2013-10-26 02:59:00,
2013-10-25 23:09:00,38.7,29.4,30.16,NW,319,0.0,1.5,69,0.00,,CLR,0.00,VWS V14.01,2013-10-26 03:09:00,
2013-10-25 23:19:00,39.1,29.8,30.16,NW,318,0.0,0.0,69,0.00,,CLR,0.00,VWS V14.01,2013-10-26 03:19:00,
2013-10-25 23:29:00,38.9,29.2,30.16,NW,319,0.0,0.0,68,0.00,,CLR,0.00,VWS V14.01,2013-10-26 03:29:00,
2013-10-25 23:39:00,38.8,29.1,30.16,NW,319,0.0,0.0,68,0.00,,CLR,0.00,VWS V14.01,2013-10-26 03:39:00,
2013-10-25 23:49:00,38.7,29.4,30.16,NW,319,0.0,0.0,69,0.00,,CLR,0.00,VWS V14.01,2013-10-26 03:49:00,
2013-10-25 23:59:00,38.9,29.6,30.16,NW,318,0.0,0.0,69,0.00,,CLR,0.00,VWS V14.01,2013-10-26 03:59:00,